sensor_id;sensor_type;location;lat;lon;timestamp;P1;durP1;ratioP1;P2;durP2;ratioP2
44068;SDS011;29738;51.234;5.484;2024-03-08T00:00:08;52.35;;;21.45;;
44068;SDS011;29738;51.234;5.484;2024-03-08T00:02:37;44.25;;;21.25;;
44068;SDS011;29738;51.234;5.484;2024-03-08T00:05:09;42.58;;;18.10;;
44068;SDS011;29738;51.234;5.484;2024-03-08T00:07:35;41.67;;;19.58;;
44068;SDS011;29738;51.234;5.484;2024-03-08T00:10:02;46.00;;;20.45;;
44068;SDS011;29738;51.234;5.484;2024-03-08T00:12:29;48.53;;;20.15;;
44068;SDS011;29738;51.234;5.484;2024-03-08T00:14:55;43.95;;;19.52;;
44068;SDS011;29738;51.234;5.484;2024-03-08T00:17:21;46.83;;;21.17;;
44068;SDS011;29738;51.234;5.484;2024-03-08T00:19:53;46.53;;;19.08;;
44068;SDS011;29738;51.234;5.484;2024-03-08T00:22:19;49.30;;;21.65;;
44068;SDS011;29738;51.234;5.484;2024-03-08T00:24:47;41.80;;;21.17;;
44068;SDS011;29738;51.234;5.484;2024-03-08T00:27:15;44.97;;;19.08;;
44068;SDS011;29738;51.234;5.484;2024-03-08T00:29:41;34.63;;;14.77;;
44068;SDS011;29738;51.234;5.484;2024-03-08T00:32:07;44.38;;;21.15;;
44068;SDS011;29738;51.234;5.484;2024-03-08T00:34:36;51.00;;;22.60;;
44068;SDS011;29738;51.234;5.484;2024-03-08T00:37:02;51.38;;;21.10;;
44068;SDS011;29738;51.234;5.484;2024-03-08T00:39:29;45.70;;;20.23;;
44068;SDS011;29738;51.234;5.484;2024-03-08T00:41:54;44.15;;;20.17;;
44068;SDS011;29738;51.234;5.484;2024-03-08T00:44:20;39.80;;;18.73;;
44068;SDS011;29738;51.234;5.484;2024-03-08T00:46:46;42.45;;;19.90;;
44068;SDS011;29738;51.234;5.484;2024-03-08T00:49:12;24.70;;;12.77;;
44068;SDS011;29738;51.234;5.484;2024-03-08T00:51:38;44.35;;;20.23;;
44068;SDS011;29738;51.234;5.484;2024-03-08T00:54:03;43.95;;;20.23;;
44068;SDS011;29738;51.234;5.484;2024-03-08T00:56:29;33.10;;;14.55;;
44068;SDS011;29738;51.234;5.484;2024-03-08T00:58:55;43.35;;;18.05;;
44068;SDS011;29738;51.234;5.484;2024-03-08T01:01:21;47.47;;;19.13;;
44068;SDS011;29738;51.234;5.484;2024-03-08T01:03:47;45.47;;;18.05;;
44068;SDS011;29738;51.234;5.484;2024-03-08T01:06:13;43.83;;;19.40;;
44068;SDS011;29738;51.234;5.484;2024-03-08T01:08:39;39.38;;;18.88;;
44068;SDS011;29738;51.234;5.484;2024-03-08T01:11:07;45.03;;;19.25;;
44068;SDS011;29738;51.234;5.484;2024-03-08T01:13:34;40.42;;;21.27;;
44068;SDS011;29738;51.234;5.484;2024-03-08T01:16:00;43.97;;;18.60;;
44068;SDS011;29738;51.234;5.484;2024-03-08T01:18:26;38.42;;;17.63;;
44068;SDS011;29738;51.234;5.484;2024-03-08T01:20:51;43.15;;;21.58;;
44068;SDS011;29738;51.234;5.484;2024-03-08T01:23:17;41.58;;;20.33;;
44068;SDS011;29738;51.234;5.484;2024-03-08T01:25:43;46.08;;;21.50;;
44068;SDS011;29738;51.234;5.484;2024-03-08T01:28:09;44.42;;;21.63;;
44068;SDS011;29738;51.234;5.484;2024-03-08T01:30:35;45.17;;;20.65;;
44068;SDS011;29738;51.234;5.484;2024-03-08T01:33:02;40.38;;;19.40;;
44068;SDS011;29738;51.234;5.484;2024-03-08T01:35:28;42.40;;;21.17;;
44068;SDS011;29738;51.234;5.484;2024-03-08T01:37:54;45.70;;;20.63;;
44068;SDS011;29738;51.234;5.484;2024-03-08T01:40:20;48.00;;;21.67;;
44068;SDS011;29738;51.234;5.484;2024-03-08T01:42:46;42.95;;;18.75;;
44068;SDS011;29738;51.234;5.484;2024-03-08T01:45:13;39.22;;;18.92;;
44068;SDS011;29738;51.234;5.484;2024-03-08T01:47:38;39.17;;;17.23;;
44068;SDS011;29738;51.234;5.484;2024-03-08T01:50:05;46.47;;;20.88;;
44068;SDS011;29738;51.234;5.484;2024-03-08T01:52:34;46.95;;;21.42;;
44068;SDS011;29738;51.234;5.484;2024-03-08T01:55:01;44.60;;;21.00;;
44068;SDS011;29738;51.234;5.484;2024-03-08T01:57:29;46.10;;;20.55;;
44068;SDS011;29738;51.234;5.484;2024-03-08T01:59:58;44.03;;;20.67;;
44068;SDS011;29738;51.234;5.484;2024-03-08T02:02:28;51.80;;;21.08;;
44068;SDS011;29738;51.234;5.484;2024-03-08T02:05:02;43.97;;;19.50;;
44068;SDS011;29738;51.234;5.484;2024-03-08T02:07:28;47.38;;;21.63;;
44068;SDS011;29738;51.234;5.484;2024-03-08T02:09:53;36.90;;;19.45;;
44068;SDS011;29738;51.234;5.484;2024-03-08T02:12:19;42.67;;;18.27;;
44068;SDS011;29738;51.234;5.484;2024-03-08T02:14:45;40.05;;;18.90;;
44068;SDS011;29738;51.234;5.484;2024-03-08T02:17:12;41.03;;;18.77;;
44068;SDS011;29738;51.234;5.484;2024-03-08T02:19:38;44.53;;;20.80;;
44068;SDS011;29738;51.234;5.484;2024-03-08T02:22:04;44.78;;;21.50;;
44068;SDS011;29738;51.234;5.484;2024-03-08T02:24:31;44.28;;;20.73;;
44068;SDS011;29738;51.234;5.484;2024-03-08T02:26:57;39.97;;;17.25;;
44068;SDS011;29738;51.234;5.484;2024-03-08T02:29:23;43.83;;;19.52;;
44068;SDS011;29738;51.234;5.484;2024-03-08T02:31:52;41.72;;;18.80;;
44068;SDS011;29738;51.234;5.484;2024-03-08T02:34:18;39.17;;;17.85;;
44068;SDS011;29738;51.234;5.484;2024-03-08T02:36:45;44.60;;;21.10;;
44068;SDS011;29738;51.234;5.484;2024-03-08T02:39:12;41.72;;;17.65;;
44068;SDS011;29738;51.234;5.484;2024-03-08T02:41:37;40.97;;;18.83;;
44068;SDS011;29738;51.234;5.484;2024-03-08T02:44:03;38.92;;;17.88;;
44068;SDS011;29738;51.234;5.484;2024-03-08T02:46:29;40.15;;;18.42;;
44068;SDS011;29738;51.234;5.484;2024-03-08T02:48:55;46.90;;;21.73;;
44068;SDS011;29738;51.234;5.484;2024-03-08T02:51:21;33.10;;;14.80;;
44068;SDS011;29738;51.234;5.484;2024-03-08T02:53:47;48.72;;;21.77;;
44068;SDS011;29738;51.234;5.484;2024-03-08T02:56:14;36.88;;;17.40;;
44068;SDS011;29738;51.234;5.484;2024-03-08T02:58:43;30.48;;;16.10;;
44068;SDS011;29738;51.234;5.484;2024-03-08T03:01:13;41.45;;;18.60;;
44068;SDS011;29738;51.234;5.484;2024-03-08T03:03:40;41.08;;;19.05;;
44068;SDS011;29738;51.234;5.484;2024-03-08T03:06:06;45.85;;;22.27;;
44068;SDS011;29738;51.234;5.484;2024-03-08T03:08:32;46.85;;;20.70;;
44068;SDS011;29738;51.234;5.484;2024-03-08T03:10:58;39.95;;;16.77;;
44068;SDS011;29738;51.234;5.484;2024-03-08T03:13:23;38.50;;;16.77;;
44068;SDS011;29738;51.234;5.484;2024-03-08T03:15:49;39.17;;;18.77;;
44068;SDS011;29738;51.234;5.484;2024-03-08T03:18:15;42.15;;;20.17;;
44068;SDS011;29738;51.234;5.484;2024-03-08T03:20:41;40.85;;;16.35;;
44068;SDS011;29738;51.234;5.484;2024-03-08T03:23:07;41.72;;;18.77;;
44068;SDS011;29738;51.234;5.484;2024-03-08T03:25:34;54.50;;;21.30;;
44068;SDS011;29738;51.234;5.484;2024-03-08T03:28:01;45.17;;;19.40;;
44068;SDS011;29738;51.234;5.484;2024-03-08T03:30:27;35.88;;;16.25;;
44068;SDS011;29738;51.234;5.484;2024-03-08T03:32:58;48.05;;;20.30;;
44068;SDS011;29738;51.234;5.484;2024-03-08T03:35:29;43.65;;;19.15;;
44068;SDS011;29738;51.234;5.484;2024-03-08T03:37:55;40.72;;;17.48;;
44068;SDS011;29738;51.234;5.484;2024-03-08T03:40:30;45.88;;;19.65;;
44068;SDS011;29738;51.234;5.484;2024-03-08T03:42:57;40.13;;;18.45;;
44068;SDS011;29738;51.234;5.484;2024-03-08T03:45:23;48.58;;;21.20;;
44068;SDS011;29738;51.234;5.484;2024-03-08T03:47:49;44.92;;;21.15;;
44068;SDS011;29738;51.234;5.484;2024-03-08T03:50:15;49.90;;;20.50;;
44068;SDS011;29738;51.234;5.484;2024-03-08T03:52:41;36.13;;;16.13;;
44068;SDS011;29738;51.234;5.484;2024-03-08T03:55:07;31.88;;;14.88;;
44068;SDS011;29738;51.234;5.484;2024-03-08T03:57:33;45.97;;;20.70;;
44068;SDS011;29738;51.234;5.484;2024-03-08T03:59:59;32.58;;;15.25;;
44068;SDS011;29738;51.234;5.484;2024-03-08T04:02:25;43.67;;;18.67;;
44068;SDS011;29738;51.234;5.484;2024-03-08T04:04:51;43.88;;;19.73;;
44068;SDS011;29738;51.234;5.484;2024-03-08T04:07:19;39.95;;;18.45;;
44068;SDS011;29738;51.234;5.484;2024-03-08T04:09:45;37.63;;;18.55;;
44068;SDS011;29738;51.234;5.484;2024-03-08T04:12:11;51.03;;;21.60;;
44068;SDS011;29738;51.234;5.484;2024-03-08T04:14:38;48.28;;;21.92;;
44068;SDS011;29738;51.234;5.484;2024-03-08T04:17:06;49.08;;;22.15;;
44068;SDS011;29738;51.234;5.484;2024-03-08T04:19:34;49.70;;;21.10;;
44068;SDS011;29738;51.234;5.484;2024-03-08T04:22:00;49.90;;;21.25;;
44068;SDS011;29738;51.234;5.484;2024-03-08T04:24:26;50.03;;;19.98;;
44068;SDS011;29738;51.234;5.484;2024-03-08T04:26:52;41.58;;;18.63;;
44068;SDS011;29738;51.234;5.484;2024-03-08T04:29:18;50.00;;;20.83;;
44068;SDS011;29738;51.234;5.484;2024-03-08T04:31:44;45.95;;;20.67;;
44068;SDS011;29738;51.234;5.484;2024-03-08T04:34:10;46.78;;;18.42;;
44068;SDS011;29738;51.234;5.484;2024-03-08T04:36:36;44.33;;;19.88;;
44068;SDS011;29738;51.234;5.484;2024-03-08T04:39:02;42.63;;;19.30;;
44068;SDS011;29738;51.234;5.484;2024-03-08T04:41:28;44.50;;;19.85;;
44068;SDS011;29738;51.234;5.484;2024-03-08T04:43:55;45.28;;;18.75;;
44068;SDS011;29738;51.234;5.484;2024-03-08T04:46:23;47.47;;;20.83;;
44068;SDS011;29738;51.234;5.484;2024-03-08T04:48:48;51.25;;;22.52;;
44068;SDS011;29738;51.234;5.484;2024-03-08T04:51:14;49.90;;;21.02;;
44068;SDS011;29738;51.234;5.484;2024-03-08T04:53:41;43.10;;;17.75;;
44068;SDS011;29738;51.234;5.484;2024-03-08T04:56:07;35.53;;;16.75;;
44068;SDS011;29738;51.234;5.484;2024-03-08T04:58:37;44.97;;;19.25;;
44068;SDS011;29738;51.234;5.484;2024-03-08T05:01:03;37.05;;;16.98;;
44068;SDS011;29738;51.234;5.484;2024-03-08T05:03:29;53.40;;;21.13;;
44068;SDS011;29738;51.234;5.484;2024-03-08T05:05:55;44.80;;;19.75;;
44068;SDS011;29738;51.234;5.484;2024-03-08T05:08:21;43.38;;;18.33;;
44068;SDS011;29738;51.234;5.484;2024-03-08T05:10:47;48.40;;;19.33;;
44068;SDS011;29738;51.234;5.484;2024-03-08T05:13:12;48.25;;;20.77;;
44068;SDS011;29738;51.234;5.484;2024-03-08T05:15:38;44.42;;;20.10;;
44068;SDS011;29738;51.234;5.484;2024-03-08T05:18:04;43.72;;;20.23;;
44068;SDS011;29738;51.234;5.484;2024-03-08T05:20:30;33.28;;;16.15;;
44068;SDS011;29738;51.234;5.484;2024-03-08T05:22:56;49.70;;;21.00;;
44068;SDS011;29738;51.234;5.484;2024-03-08T05:25:25;46.53;;;18.75;;
44068;SDS011;29738;51.234;5.484;2024-03-08T05:27:51;40.65;;;16.25;;
44068;SDS011;29738;51.234;5.484;2024-03-08T05:30:17;48.72;;;19.98;;
44068;SDS011;29738;51.234;5.484;2024-03-08T05:32:43;47.53;;;20.52;;
44068;SDS011;29738;51.234;5.484;2024-03-08T05:35:12;46.70;;;19.75;;
44068;SDS011;29738;51.234;5.484;2024-03-08T05:37:40;46.25;;;19.45;;
44068;SDS011;29738;51.234;5.484;2024-03-08T05:40:06;50.13;;;19.73;;
44068;SDS011;29738;51.234;5.484;2024-03-08T05:42:35;38.75;;;16.70;;
44068;SDS011;29738;51.234;5.484;2024-03-08T05:45:02;48.75;;;19.77;;
44068;SDS011;29738;51.234;5.484;2024-03-08T05:47:28;43.65;;;17.92;;
44068;SDS011;29738;51.234;5.484;2024-03-08T05:49:54;43.72;;;19.23;;
44068;SDS011;29738;51.234;5.484;2024-03-08T05:52:20;46.42;;;19.80;;
44068;SDS011;29738;51.234;5.484;2024-03-08T05:54:46;50.55;;;23.60;;
44068;SDS011;29738;51.234;5.484;2024-03-08T05:57:12;37.90;;;16.70;;
44068;SDS011;29738;51.234;5.484;2024-03-08T05:59:39;62.22;;;25.42;;
44068;SDS011;29738;51.234;5.484;2024-03-08T06:02:05;45.17;;;20.48;;
44068;SDS011;29738;51.234;5.484;2024-03-08T06:04:31;58.28;;;25.45;;
44068;SDS011;29738;51.234;5.484;2024-03-08T06:06:56;44.22;;;19.77;;
44068;SDS011;29738;51.234;5.484;2024-03-08T06:09:23;33.58;;;16.13;;
44068;SDS011;29738;51.234;5.484;2024-03-08T06:11:50;57.83;;;24.58;;
44068;SDS011;29738;51.234;5.484;2024-03-08T06:14:16;46.80;;;19.45;;
44068;SDS011;29738;51.234;5.484;2024-03-08T06:16:46;42.90;;;18.27;;
44068;SDS011;29738;51.234;5.484;2024-03-08T06:19:15;44.53;;;19.63;;
44068;SDS011;29738;51.234;5.484;2024-03-08T06:21:40;42.85;;;18.55;;
44068;SDS011;29738;51.234;5.484;2024-03-08T06:24:06;44.25;;;19.25;;
44068;SDS011;29738;51.234;5.484;2024-03-08T06:26:32;49.40;;;20.70;;
44068;SDS011;29738;51.234;5.484;2024-03-08T06:28:58;48.85;;;21.02;;
44068;SDS011;29738;51.234;5.484;2024-03-08T06:31:24;50.05;;;19.88;;
44068;SDS011;29738;51.234;5.484;2024-03-08T06:33:49;46.67;;;20.45;;
44068;SDS011;29738;51.234;5.484;2024-03-08T06:36:16;46.35;;;18.52;;
44068;SDS011;29738;51.234;5.484;2024-03-08T06:38:44;39.78;;;16.73;;
44068;SDS011;29738;51.234;5.484;2024-03-08T06:41:14;40.55;;;17.60;;
44068;SDS011;29738;51.234;5.484;2024-03-08T06:43:45;49.08;;;21.83;;
44068;SDS011;29738;51.234;5.484;2024-03-08T06:46:14;47.38;;;22.25;;
44068;SDS011;29738;51.234;5.484;2024-03-08T06:48:40;41.35;;;18.55;;
44068;SDS011;29738;51.234;5.484;2024-03-08T06:51:06;45.97;;;18.33;;
44068;SDS011;29738;51.234;5.484;2024-03-08T06:53:32;46.45;;;19.85;;
44068;SDS011;29738;51.234;5.484;2024-03-08T06:56:00;36.10;;;15.63;;
44068;SDS011;29738;51.234;5.484;2024-03-08T06:58:26;52.78;;;22.02;;
44068;SDS011;29738;51.234;5.484;2024-03-08T07:00:53;40.67;;;15.95;;
44068;SDS011;29738;51.234;5.484;2024-03-08T07:03:19;48.50;;;22.10;;
44068;SDS011;29738;51.234;5.484;2024-03-08T07:05:47;64.00;;;23.75;;
44068;SDS011;29738;51.234;5.484;2024-03-08T07:08:13;56.40;;;22.40;;
44068;SDS011;29738;51.234;5.484;2024-03-08T07:10:39;46.42;;;18.27;;
44068;SDS011;29738;51.234;5.484;2024-03-08T07:13:07;46.03;;;19.52;;
44068;SDS011;29738;51.234;5.484;2024-03-08T07:15:33;39.75;;;16.58;;
44068;SDS011;29738;51.234;5.484;2024-03-08T07:18:00;44.78;;;20.13;;
44068;SDS011;29738;51.234;5.484;2024-03-08T07:20:26;45.65;;;18.35;;
44068;SDS011;29738;51.234;5.484;2024-03-08T07:22:53;44.58;;;20.35;;
44068;SDS011;29738;51.234;5.484;2024-03-08T07:25:19;39.88;;;18.02;;
44068;SDS011;29738;51.234;5.484;2024-03-08T07:27:53;41.95;;;18.38;;
44068;SDS011;29738;51.234;5.484;2024-03-08T07:30:25;48.13;;;20.17;;
44068;SDS011;29738;51.234;5.484;2024-03-08T07:33:10;37.08;;;15.30;;
44068;SDS011;29738;51.234;5.484;2024-03-08T07:35:37;44.85;;;18.95;;
44068;SDS011;29738;51.234;5.484;2024-03-08T07:40:30;50.25;;;20.92;;
44068;SDS011;29738;51.234;5.484;2024-03-08T07:42:57;49.92;;;20.63;;
44068;SDS011;29738;51.234;5.484;2024-03-08T07:45:23;44.00;;;18.25;;
44068;SDS011;29738;51.234;5.484;2024-03-08T07:47:49;43.42;;;19.20;;
44068;SDS011;29738;51.234;5.484;2024-03-08T07:50:16;44.78;;;18.20;;
44068;SDS011;29738;51.234;5.484;2024-03-08T07:52:42;37.47;;;16.80;;
44068;SDS011;29738;51.234;5.484;2024-03-08T07:55:08;37.55;;;15.98;;
44068;SDS011;29738;51.234;5.484;2024-03-08T07:57:35;31.25;;;15.45;;
44068;SDS011;29738;51.234;5.484;2024-03-08T08:00:03;41.42;;;17.08;;
44068;SDS011;29738;51.234;5.484;2024-03-08T08:02:33;30.45;;;15.10;;
44068;SDS011;29738;51.234;5.484;2024-03-08T08:05:00;35.20;;;17.05;;
44068;SDS011;29738;51.234;5.484;2024-03-08T08:07:26;46.63;;;19.30;;
44068;SDS011;29738;51.234;5.484;2024-03-08T08:09:52;42.47;;;18.90;;
44068;SDS011;29738;51.234;5.484;2024-03-08T08:12:18;34.85;;;15.65;;
44068;SDS011;29738;51.234;5.484;2024-03-08T08:14:47;42.38;;;20.33;;
44068;SDS011;29738;51.234;5.484;2024-03-08T08:17:13;45.38;;;20.02;;
44068;SDS011;29738;51.234;5.484;2024-03-08T08:19:40;36.42;;;17.23;;
44068;SDS011;29738;51.234;5.484;2024-03-08T08:22:06;47.67;;;20.98;;
44068;SDS011;29738;51.234;5.484;2024-03-08T08:24:33;40.72;;;16.48;;
44068;SDS011;29738;51.234;5.484;2024-03-08T08:27:01;47.92;;;19.65;;
44068;SDS011;29738;51.234;5.484;2024-03-08T08:29:28;38.25;;;17.23;;
44068;SDS011;29738;51.234;5.484;2024-03-08T08:31:53;37.30;;;17.38;;
44068;SDS011;29738;51.234;5.484;2024-03-08T08:34:19;40.28;;;16.50;;
44068;SDS011;29738;51.234;5.484;2024-03-08T08:36:48;29.35;;;13.90;;
44068;SDS011;29738;51.234;5.484;2024-03-08T08:39:14;39.75;;;16.85;;
44068;SDS011;29738;51.234;5.484;2024-03-08T08:41:42;37.38;;;15.98;;
44068;SDS011;29738;51.234;5.484;2024-03-08T08:44:07;37.60;;;17.30;;
44068;SDS011;29738;51.234;5.484;2024-03-08T08:46:37;33.55;;;15.88;;
44068;SDS011;29738;51.234;5.484;2024-03-08T08:49:04;37.90;;;16.67;;
44068;SDS011;29738;51.234;5.484;2024-03-08T08:51:31;36.50;;;17.40;;
44068;SDS011;29738;51.234;5.484;2024-03-08T08:53:58;39.47;;;16.08;;
44068;SDS011;29738;51.234;5.484;2024-03-08T08:56:27;36.85;;;14.82;;
44068;SDS011;29738;51.234;5.484;2024-03-08T08:58:56;42.30;;;20.03;;
44068;SDS011;29738;51.234;5.484;2024-03-08T09:01:22;38.75;;;18.58;;
44068;SDS011;29738;51.234;5.484;2024-03-08T09:03:48;33.08;;;15.90;;
44068;SDS011;29738;51.234;5.484;2024-03-08T09:06:15;39.63;;;17.23;;
44068;SDS011;29738;51.234;5.484;2024-03-08T09:08:42;40.05;;;18.63;;
44068;SDS011;29738;51.234;5.484;2024-03-08T09:11:09;42.42;;;20.00;;
44068;SDS011;29738;51.234;5.484;2024-03-08T09:13:35;34.85;;;16.77;;
44068;SDS011;29738;51.234;5.484;2024-03-08T09:16:01;40.20;;;17.30;;
44068;SDS011;29738;51.234;5.484;2024-03-08T09:18:30;40.45;;;16.85;;
44068;SDS011;29738;51.234;5.484;2024-03-08T09:20:57;37.55;;;16.17;;
44068;SDS011;29738;51.234;5.484;2024-03-08T09:23:25;36.13;;;16.33;;
44068;SDS011;29738;51.234;5.484;2024-03-08T09:25:55;44.75;;;18.90;;
44068;SDS011;29738;51.234;5.484;2024-03-08T09:28:22;34.42;;;16.70;;
44068;SDS011;29738;51.234;5.484;2024-03-08T09:30:48;31.70;;;16.08;;
44068;SDS011;29738;51.234;5.484;2024-03-08T09:33:14;36.72;;;15.02;;
44068;SDS011;29738;51.234;5.484;2024-03-08T09:35:44;34.47;;;16.20;;
44068;SDS011;29738;51.234;5.484;2024-03-08T09:38:12;34.33;;;16.10;;
44068;SDS011;29738;51.234;5.484;2024-03-08T09:40:38;38.55;;;17.42;;
44068;SDS011;29738;51.234;5.484;2024-03-08T09:43:07;31.33;;;14.23;;
44068;SDS011;29738;51.234;5.484;2024-03-08T09:45:35;29.52;;;14.70;;
44068;SDS011;29738;51.234;5.484;2024-03-08T09:48:06;34.83;;;15.57;;
44068;SDS011;29738;51.234;5.484;2024-03-08T09:50:41;34.47;;;15.07;;
44068;SDS011;29738;51.234;5.484;2024-03-08T09:53:08;36.55;;;15.00;;
44068;SDS011;29738;51.234;5.484;2024-03-08T09:55:37;29.35;;;14.38;;
44068;SDS011;29738;51.234;5.484;2024-03-08T09:58:07;31.77;;;15.80;;
44068;SDS011;29738;51.234;5.484;2024-03-08T10:00:53;37.47;;;15.90;;
44068;SDS011;29738;51.234;5.484;2024-03-08T10:03:22;49.72;;;21.55;;
44068;SDS011;29738;51.234;5.484;2024-03-08T10:05:48;34.00;;;17.88;;
44068;SDS011;29738;51.234;5.484;2024-03-08T10:08:14;37.33;;;16.95;;
44068;SDS011;29738;51.234;5.484;2024-03-08T10:10:42;29.60;;;14.93;;
44068;SDS011;29738;51.234;5.484;2024-03-08T10:13:08;32.78;;;15.25;;
44068;SDS011;29738;51.234;5.484;2024-03-08T10:15:36;33.50;;;14.63;;
44068;SDS011;29738;51.234;5.484;2024-03-08T10:18:03;31.60;;;15.52;;
44068;SDS011;29738;51.234;5.484;2024-03-08T10:20:32;25.58;;;12.57;;
44068;SDS011;29738;51.234;5.484;2024-03-08T10:22:59;32.10;;;14.95;;
44068;SDS011;29738;51.234;5.484;2024-03-08T10:25:25;31.75;;;15.65;;
44068;SDS011;29738;51.234;5.484;2024-03-08T10:27:51;32.92;;;15.35;;
44068;SDS011;29738;51.234;5.484;2024-03-08T10:30:18;39.13;;;19.58;;
44068;SDS011;29738;51.234;5.484;2024-03-08T10:32:45;30.42;;;16.13;;
44068;SDS011;29738;51.234;5.484;2024-03-08T10:35:11;40.03;;;16.73;;
44068;SDS011;29738;51.234;5.484;2024-03-08T10:37:44;27.65;;;15.52;;
44068;SDS011;29738;51.234;5.484;2024-03-08T10:40:18;36.10;;;17.27;;
44068;SDS011;29738;51.234;5.484;2024-03-08T10:42:58;30.45;;;15.25;;
44068;SDS011;29738;51.234;5.484;2024-03-08T10:46:00;27.33;;;13.68;;
44068;SDS011;29738;51.234;5.484;2024-03-08T10:48:32;27.65;;;14.38;;
44068;SDS011;29738;51.234;5.484;2024-03-08T10:51:06;29.95;;;15.20;;
44068;SDS011;29738;51.234;5.484;2024-03-08T10:53:36;31.85;;;14.30;;
44068;SDS011;29738;51.234;5.484;2024-03-08T10:56:04;26.30;;;11.93;;
44068;SDS011;29738;51.234;5.484;2024-03-08T10:58:30;31.98;;;14.95;;
44068;SDS011;29738;51.234;5.484;2024-03-08T11:00:57;30.58;;;13.88;;
44068;SDS011;29738;51.234;5.484;2024-03-08T11:03:44;30.17;;;13.55;;
44068;SDS011;29738;51.234;5.484;2024-03-08T11:06:21;24.52;;;14.25;;
44068;SDS011;29738;51.234;5.484;2024-03-08T11:08:48;31.88;;;14.02;;
44068;SDS011;29738;51.234;5.484;2024-03-08T11:18:53;27.42;;;13.50;;
44068;SDS011;29738;51.234;5.484;2024-03-08T11:21:32;29.65;;;15.57;;
44068;SDS011;29738;51.234;5.484;2024-03-08T11:24:01;30.17;;;14.82;;
44068;SDS011;29738;51.234;5.484;2024-03-08T11:26:32;28.70;;;15.48;;
44068;SDS011;29738;51.234;5.484;2024-03-08T11:34:32;28.73;;;13.50;;
44068;SDS011;29738;51.234;5.484;2024-03-08T11:36:58;28.52;;;14.73;;
44068;SDS011;29738;51.234;5.484;2024-03-08T11:39:25;26.08;;;13.27;;
44068;SDS011;29738;51.234;5.484;2024-03-08T11:41:51;25.52;;;12.98;;
44068;SDS011;29738;51.234;5.484;2024-03-08T11:44:17;29.42;;;13.95;;
44068;SDS011;29738;51.234;5.484;2024-03-08T11:46:43;30.95;;;15.73;;
44068;SDS011;29738;51.234;5.484;2024-03-08T11:49:13;28.58;;;13.80;;
44068;SDS011;29738;51.234;5.484;2024-03-08T11:51:39;27.98;;;14.45;;
44068;SDS011;29738;51.234;5.484;2024-03-08T11:54:06;23.77;;;10.75;;
44068;SDS011;29738;51.234;5.484;2024-03-08T11:56:36;22.88;;;11.52;;
44068;SDS011;29738;51.234;5.484;2024-03-08T11:59:02;27.73;;;13.23;;
44068;SDS011;29738;51.234;5.484;2024-03-08T12:01:28;27.50;;;13.77;;
44068;SDS011;29738;51.234;5.484;2024-03-08T12:03:54;25.23;;;12.95;;
44068;SDS011;29738;51.234;5.484;2024-03-08T12:06:25;25.75;;;13.85;;
44068;SDS011;29738;51.234;5.484;2024-03-08T12:08:52;24.08;;;12.88;;
44068;SDS011;29738;51.234;5.484;2024-03-08T12:11:18;22.73;;;11.93;;
44068;SDS011;29738;51.234;5.484;2024-03-08T12:13:48;27.15;;;12.02;;
44068;SDS011;29738;51.234;5.484;2024-03-08T12:16:17;26.73;;;12.02;;
44068;SDS011;29738;51.234;5.484;2024-03-08T12:18:44;24.02;;;12.38;;
44068;SDS011;29738;51.234;5.484;2024-03-08T12:21:11;30.05;;;13.57;;
44068;SDS011;29738;51.234;5.484;2024-03-08T12:23:44;37.53;;;13.98;;
44068;SDS011;29738;51.234;5.484;2024-03-08T12:26:11;24.10;;;12.38;;
44068;SDS011;29738;51.234;5.484;2024-03-08T12:28:39;27.38;;;14.10;;
44068;SDS011;29738;51.234;5.484;2024-03-08T12:31:06;27.90;;;13.48;;
44068;SDS011;29738;51.234;5.484;2024-03-08T12:33:37;22.20;;;10.70;;
44068;SDS011;29738;51.234;5.484;2024-03-08T12:36:14;21.85;;;11.77;;
44068;SDS011;29738;51.234;5.484;2024-03-08T12:38:43;25.08;;;13.70;;
44068;SDS011;29738;51.234;5.484;2024-03-08T12:41:12;27.98;;;13.20;;
44068;SDS011;29738;51.234;5.484;2024-03-08T12:43:45;24.05;;;12.27;;
44068;SDS011;29738;51.234;5.484;2024-03-08T12:46:22;26.20;;;13.13;;
44068;SDS011;29738;51.234;5.484;2024-03-08T12:48:51;27.50;;;13.55;;
44068;SDS011;29738;51.234;5.484;2024-03-08T12:51:19;26.42;;;12.82;;
44068;SDS011;29738;51.234;5.484;2024-03-08T12:53:46;25.05;;;13.13;;
44068;SDS011;29738;51.234;5.484;2024-03-08T12:56:12;25.70;;;12.00;;
44068;SDS011;29738;51.234;5.484;2024-03-08T12:58:40;25.30;;;13.27;;
44068;SDS011;29738;51.234;5.484;2024-03-08T13:01:07;24.50;;;12.38;;
44068;SDS011;29738;51.234;5.484;2024-03-08T13:03:34;23.58;;;12.27;;
44068;SDS011;29738;51.234;5.484;2024-03-08T13:06:01;19.67;;;10.48;;
44068;SDS011;29738;51.234;5.484;2024-03-08T13:08:36;25.52;;;13.20;;
44068;SDS011;29738;51.234;5.484;2024-03-08T13:11:06;24.27;;;12.32;;
44068;SDS011;29738;51.234;5.484;2024-03-08T13:13:32;26.08;;;13.02;;
44068;SDS011;29738;51.234;5.484;2024-03-08T13:16:02;25.38;;;14.68;;
44068;SDS011;29738;51.234;5.484;2024-03-08T13:18:28;24.58;;;12.43;;
44068;SDS011;29738;51.234;5.484;2024-03-08T13:20:54;25.20;;;13.07;;
44068;SDS011;29738;51.234;5.484;2024-03-08T13:23:20;26.65;;;12.55;;
44068;SDS011;29738;51.234;5.484;2024-03-08T13:25:46;24.90;;;13.60;;
44068;SDS011;29738;51.234;5.484;2024-03-08T13:28:15;24.92;;;12.45;;
44068;SDS011;29738;51.234;5.484;2024-03-08T13:30:42;23.30;;;12.35;;
44068;SDS011;29738;51.234;5.484;2024-03-08T13:33:09;26.50;;;13.68;;
44068;SDS011;29738;51.234;5.484;2024-03-08T13:35:35;24.70;;;13.35;;
44068;SDS011;29738;51.234;5.484;2024-03-08T13:38:03;23.00;;;13.20;;
44068;SDS011;29738;51.234;5.484;2024-03-08T13:40:29;25.17;;;12.77;;
44068;SDS011;29738;51.234;5.484;2024-03-08T13:42:56;25.70;;;12.25;;
44068;SDS011;29738;51.234;5.484;2024-03-08T13:45:21;24.00;;;11.98;;
44068;SDS011;29738;51.234;5.484;2024-03-08T13:47:49;21.13;;;11.95;;
44068;SDS011;29738;51.234;5.484;2024-03-08T13:50:16;26.77;;;13.90;;
44068;SDS011;29738;51.234;5.484;2024-03-08T13:52:46;22.25;;;12.40;;
44068;SDS011;29738;51.234;5.484;2024-03-08T13:55:16;24.58;;;12.57;;
44068;SDS011;29738;51.234;5.484;2024-03-08T13:57:42;23.40;;;12.93;;
44068;SDS011;29738;51.234;5.484;2024-03-08T14:00:10;24.48;;;12.20;;
44068;SDS011;29738;51.234;5.484;2024-03-08T14:02:37;21.30;;;11.43;;
44068;SDS011;29738;51.234;5.484;2024-03-08T14:05:06;20.95;;;12.38;;
44068;SDS011;29738;51.234;5.484;2024-03-08T14:07:34;23.77;;;12.40;;
44068;SDS011;29738;51.234;5.484;2024-03-08T14:10:00;23.08;;;12.20;;
44068;SDS011;29738;51.234;5.484;2024-03-08T14:12:26;26.00;;;13.00;;
44068;SDS011;29738;51.234;5.484;2024-03-08T14:14:55;22.70;;;12.75;;
44068;SDS011;29738;51.234;5.484;2024-03-08T14:17:28;24.83;;;13.50;;
44068;SDS011;29738;51.234;5.484;2024-03-08T14:19:56;23.17;;;12.30;;
44068;SDS011;29738;51.234;5.484;2024-03-08T14:22:21;30.25;;;14.05;;
44068;SDS011;29738;51.234;5.484;2024-03-08T14:24:48;25.75;;;12.40;;
44068;SDS011;29738;51.234;5.484;2024-03-08T14:27:15;22.90;;;12.57;;
44068;SDS011;29738;51.234;5.484;2024-03-08T14:29:43;24.95;;;13.25;;
44068;SDS011;29738;51.234;5.484;2024-03-08T14:32:09;23.52;;;12.52;;
44068;SDS011;29738;51.234;5.484;2024-03-08T14:34:35;23.05;;;12.38;;
44068;SDS011;29738;51.234;5.484;2024-03-08T14:37:01;25.02;;;12.10;;